sensor_id;sensor_type;location;lat;lon;timestamp;P1;durP1;ratioP1;P2;durP2;ratioP2
64871;SDS011;51351;51.450;6.614;2023-07-20T00:00:51;8.20;;;3.63;;
64871;SDS011;51351;51.450;6.614;2023-07-20T00:03:19;5.38;;;3.63;;
64871;SDS011;51351;51.450;6.614;2023-07-20T00:05:49;7.45;;;4.38;;
64871;SDS011;51351;51.450;6.614;2023-07-20T00:08:15;5.90;;;4.00;;
64871;SDS011;51351;51.450;6.614;2023-07-20T00:10:42;5.03;;;4.43;;
64871;SDS011;51351;51.450;6.614;2023-07-20T00:13:09;8.48;;;4.00;;
64871;SDS011;51351;51.450;6.614;2023-07-20T00:15:36;10.60;;;5.05;;
64871;SDS011;51351;51.450;6.614;2023-07-20T00:18:06;6.97;;;4.35;;
64871;SDS011;51351;51.450;6.614;2023-07-20T00:20:32;8.80;;;4.43;;
64871;SDS011;51351;51.450;6.614;2023-07-20T00:22:58;4.97;;;4.15;;
64871;SDS011;51351;51.450;6.614;2023-07-20T00:25:24;7.70;;;4.10;;
64871;SDS011;51351;51.450;6.614;2023-07-20T00:27:50;6.80;;;3.97;;
64871;SDS011;51351;51.450;6.614;2023-07-20T00:30:17;5.45;;;3.75;;
64871;SDS011;51351;51.450;6.614;2023-07-20T00:32:44;7.35;;;4.40;;
64871;SDS011;51351;51.450;6.614;2023-07-20T00:35:10;5.05;;;4.35;;
64871;SDS011;51351;51.450;6.614;2023-07-20T00:37:37;5.10;;;3.72;;
64871;SDS011;51351;51.450;6.614;2023-07-20T00:40:05;6.97;;;4.00;;
64871;SDS011;51351;51.450;6.614;2023-07-20T00:42:33;6.53;;;5.72;;
64871;SDS011;51351;51.450;6.614;2023-07-20T00:44:59;7.82;;;5.90;;
64871;SDS011;51351;51.450;6.614;2023-07-20T00:47:26;7.13;;;4.57;;
64871;SDS011;51351;51.450;6.614;2023-07-20T00:49:53;5.20;;;3.78;;
64871;SDS011;51351;51.450;6.614;2023-07-20T00:52:23;8.20;;;4.55;;
64871;SDS011;51351;51.450;6.614;2023-07-20T00:54:51;7.60;;;4.38;;
64871;SDS011;51351;51.450;6.614;2023-07-20T00:57:18;5.65;;;4.05;;
64871;SDS011;51351;51.450;6.614;2023-07-20T00:59:44;9.82;;;4.35;;
64871;SDS011;51351;51.450;6.614;2023-07-20T01:02:10;6.03;;;4.38;;
64871;SDS011;51351;51.450;6.614;2023-07-20T01:04:36;6.10;;;4.63;;
64871;SDS011;51351;51.450;6.614;2023-07-20T01:12:05;6.75;;;5.28;;
64871;SDS011;51351;51.450;6.614;2023-07-20T01:14:34;5.85;;;4.90;;
64871;SDS011;51351;51.450;6.614;2023-07-20T01:17:01;8.45;;;5.03;;
64871;SDS011;51351;51.450;6.614;2023-07-20T01:19:27;5.95;;;4.43;;
64871;SDS011;51351;51.450;6.614;2023-07-20T01:21:59;6.00;;;5.40;;
64871;SDS011;51351;51.450;6.614;2023-07-20T01:24:37;10.73;;;5.45;;
64871;SDS011;51351;51.450;6.614;2023-07-20T01:30:39;7.57;;;5.93;;
64871;SDS011;51351;51.450;6.614;2023-07-20T01:32:55;7.60;;;5.20;;
64871;SDS011;51351;51.450;6.614;2023-07-20T01:35:23;9.35;;;6.05;;
64871;SDS011;51351;51.450;6.614;2023-07-20T01:37:54;8.65;;;5.93;;
64871;SDS011;51351;51.450;6.614;2023-07-20T01:40:22;7.95;;;5.60;;
64871;SDS011;51351;51.450;6.614;2023-07-20T01:42:52;10.73;;;6.00;;
64871;SDS011;51351;51.450;6.614;2023-07-20T01:45:19;8.55;;;6.57;;
64871;SDS011;51351;51.450;6.614;2023-07-20T01:47:45;11.13;;;6.32;;
64871;SDS011;51351;51.450;6.614;2023-07-20T01:50:11;7.97;;;5.78;;
64871;SDS011;51351;51.450;6.614;2023-07-20T01:52:37;6.53;;;4.78;;
64871;SDS011;51351;51.450;6.614;2023-07-20T01:55:03;9.77;;;5.97;;
64871;SDS011;51351;51.450;6.614;2023-07-20T01:57:32;11.35;;;6.30;;
64871;SDS011;51351;51.450;6.614;2023-07-20T01:59:58;10.98;;;5.93;;
64871;SDS011;51351;51.450;6.614;2023-07-20T02:02:26;12.38;;;6.40;;
64871;SDS011;51351;51.450;6.614;2023-07-20T02:04:53;10.07;;;6.18;;
64871;SDS011;51351;51.450;6.614;2023-07-20T02:07:20;11.15;;;6.22;;
64871;SDS011;51351;51.450;6.614;2023-07-20T02:09:46;10.00;;;6.07;;
64871;SDS011;51351;51.450;6.614;2023-07-20T02:12:13;11.43;;;6.38;;
64871;SDS011;51351;51.450;6.614;2023-07-20T02:14:39;10.00;;;6.50;;
64871;SDS011;51351;51.450;6.614;2023-07-20T02:17:05;12.02;;;6.60;;
64871;SDS011;51351;51.450;6.614;2023-07-20T02:19:31;9.13;;;5.20;;
64871;SDS011;51351;51.450;6.614;2023-07-20T02:21:57;8.65;;;6.32;;
64871;SDS011;51351;51.450;6.614;2023-07-20T02:24:23;8.75;;;6.32;;
64871;SDS011;51351;51.450;6.614;2023-07-20T02:26:51;10.55;;;7.63;;
64871;SDS011;51351;51.450;6.614;2023-07-20T02:29:17;13.75;;;7.85;;
64871;SDS011;51351;51.450;6.614;2023-07-20T02:31:43;10.07;;;7.10;;
64871;SDS011;51351;51.450;6.614;2023-07-20T02:34:09;11.15;;;8.27;;
64871;SDS011;51351;51.450;6.614;2023-07-20T02:36:35;12.80;;;7.10;;
64871;SDS011;51351;51.450;6.614;2023-07-20T02:39:01;10.05;;;7.20;;
64871;SDS011;51351;51.450;6.614;2023-07-20T02:41:30;13.50;;;7.95;;
64871;SDS011;51351;51.450;6.614;2023-07-20T02:43:58;15.10;;;9.10;;
64871;SDS011;51351;51.450;6.614;2023-07-20T02:46:25;13.55;;;8.77;;
64871;SDS011;51351;51.450;6.614;2023-07-20T02:48:51;13.40;;;7.63;;
64871;SDS011;51351;51.450;6.614;2023-07-20T02:51:17;11.48;;;7.88;;
64871;SDS011;51351;51.450;6.614;2023-07-20T02:53:43;15.02;;;7.18;;
64871;SDS011;51351;51.450;6.614;2023-07-20T02:56:09;10.93;;;7.15;;
64871;SDS011;51351;51.450;6.614;2023-07-20T02:58:35;12.05;;;7.50;;
64871;SDS011;51351;51.450;6.614;2023-07-20T03:01:04;13.23;;;8.23;;
64871;SDS011;51351;51.450;6.614;2023-07-20T03:03:30;12.65;;;7.38;;
64871;SDS011;51351;51.450;6.614;2023-07-20T03:05:56;11.30;;;7.18;;
64871;SDS011;51351;51.450;6.614;2023-07-20T03:08:24;14.85;;;7.60;;
64871;SDS011;51351;51.450;6.614;2023-07-20T03:10:50;12.20;;;7.00;;
64871;SDS011;51351;51.450;6.614;2023-07-20T03:13:16;13.13;;;8.13;;
64871;SDS011;51351;51.450;6.614;2023-07-20T03:15:43;12.68;;;8.63;;
64871;SDS011;51351;51.450;6.614;2023-07-20T03:18:09;11.60;;;8.13;;
64871;SDS011;51351;51.450;6.614;2023-07-20T03:20:35;12.20;;;9.02;;
64871;SDS011;51351;51.450;6.614;2023-07-20T03:25:27;12.10;;;7.20;;
64871;SDS011;51351;51.450;6.614;2023-07-20T03:27:54;11.18;;;8.48;;
64871;SDS011;51351;51.450;6.614;2023-07-20T03:30:20;15.63;;;8.82;;
64871;SDS011;51351;51.450;6.614;2023-07-20T03:32:46;16.17;;;8.48;;
64871;SDS011;51351;51.450;6.614;2023-07-20T03:35:12;13.88;;;8.23;;
64871;SDS011;51351;51.450;6.614;2023-07-20T03:37:38;12.57;;;8.70;;
64871;SDS011;51351;51.450;6.614;2023-07-20T03:40:04;19.48;;;8.82;;
64871;SDS011;51351;51.450;6.614;2023-07-20T03:42:33;14.30;;;8.82;;
64871;SDS011;51351;51.450;6.614;2023-07-20T03:44:59;12.88;;;7.88;;
64871;SDS011;51351;51.450;6.614;2023-07-20T03:49:51;13.32;;;8.77;;
64871;SDS011;51351;51.450;6.614;2023-07-20T03:52:17;12.27;;;8.82;;
64871;SDS011;51351;51.450;6.614;2023-07-20T03:54:43;13.38;;;9.05;;
64871;SDS011;51351;51.450;6.614;2023-07-20T03:57:10;13.65;;;9.85;;
64871;SDS011;51351;51.450;6.614;2023-07-20T03:59:37;12.70;;;9.32;;
64871;SDS011;51351;51.450;6.614;2023-07-20T04:02:03;14.65;;;9.15;;
64871;SDS011;51351;51.450;6.614;2023-07-20T04:04:31;15.07;;;12.00;;
64871;SDS011;51351;51.450;6.614;2023-07-20T04:06:57;13.50;;;10.93;;
64871;SDS011;51351;51.450;6.614;2023-07-20T04:09:23;17.13;;;11.02;;
64871;SDS011;51351;51.450;6.614;2023-07-20T04:11:49;19.75;;;12.55;;
64871;SDS011;51351;51.450;6.614;2023-07-20T04:14:15;19.55;;;11.80;;
64871;SDS011;51351;51.450;6.614;2023-07-20T04:16:41;18.27;;;13.65;;
64871;SDS011;51351;51.450;6.614;2023-07-20T04:19:07;16.17;;;10.25;;
64871;SDS011;51351;51.450;6.614;2023-07-20T04:21:39;19.55;;;12.45;;
64871;SDS011;51351;51.450;6.614;2023-07-20T04:24:07;15.52;;;11.55;;
64871;SDS011;51351;51.450;6.614;2023-07-20T04:26:33;16.98;;;11.77;;
64871;SDS011;51351;51.450;6.614;2023-07-20T04:28:59;17.55;;;11.57;;
64871;SDS011;51351;51.450;6.614;2023-07-20T04:31:33;16.48;;;10.35;;
64871;SDS011;51351;51.450;6.614;2023-07-20T04:33:59;14.82;;;10.05;;
64871;SDS011;51351;51.450;6.614;2023-07-20T04:36:26;19.35;;;10.45;;
64871;SDS011;51351;51.450;6.614;2023-07-20T04:38:53;17.52;;;11.07;;
64871;SDS011;51351;51.450;6.614;2023-07-20T04:41:20;18.40;;;11.85;;
64871;SDS011;51351;51.450;6.614;2023-07-20T04:43:48;21.55;;;12.90;;
64871;SDS011;51351;51.450;6.614;2023-07-20T04:46:20;17.38;;;10.77;;
64871;SDS011;51351;51.450;6.614;2023-07-20T04:48:47;17.95;;;11.25;;
64871;SDS011;51351;51.450;6.614;2023-07-20T04:51:14;17.45;;;10.50;;
64871;SDS011;51351;51.450;6.614;2023-07-20T04:53:40;17.52;;;11.45;;
64871;SDS011;51351;51.450;6.614;2023-07-20T04:56:09;14.32;;;10.88;;
64871;SDS011;51351;51.450;6.614;2023-07-20T04:58:36;13.30;;;10.70;;
64871;SDS011;51351;51.450;6.614;2023-07-20T05:01:02;13.48;;;10.70;;
64871;SDS011;51351;51.450;6.614;2023-07-20T05:03:29;12.60;;;9.75;;
64871;SDS011;51351;51.450;6.614;2023-07-20T05:05:55;15.10;;;10.30;;
64871;SDS011;51351;51.450;6.614;2023-07-20T05:08:22;12.93;;;10.65;;
64871;SDS011;51351;51.450;6.614;2023-07-20T05:10:48;13.43;;;9.50;;
64871;SDS011;51351;51.450;6.614;2023-07-20T05:13:14;10.70;;;8.50;;
64871;SDS011;51351;51.450;6.614;2023-07-20T05:15:40;12.02;;;9.30;;
64871;SDS011;51351;51.450;6.614;2023-07-20T05:18:10;14.82;;;10.25;;
64871;SDS011;51351;51.450;6.614;2023-07-20T05:20:36;10.98;;;8.30;;
64871;SDS011;51351;51.450;6.614;2023-07-20T05:23:03;13.75;;;9.18;;
64871;SDS011;51351;51.450;6.614;2023-07-20T05:25:29;14.02;;;10.48;;
64871;SDS011;51351;51.450;6.614;2023-07-20T05:27:55;11.80;;;9.57;;
64871;SDS011;51351;51.450;6.614;2023-07-20T05:30:21;11.30;;;9.50;;
64871;SDS011;51351;51.450;6.614;2023-07-20T05:32:47;10.65;;;8.45;;
64871;SDS011;51351;51.450;6.614;2023-07-20T05:35:17;12.35;;;8.20;;
64871;SDS011;51351;51.450;6.614;2023-07-20T05:37:44;11.48;;;8.60;;
64871;SDS011;51351;51.450;6.614;2023-07-20T05:40:10;9.10;;;7.10;;
64871;SDS011;51351;51.450;6.614;2023-07-20T05:42:40;11.00;;;8.13;;
64871;SDS011;51351;51.450;6.614;2023-07-20T05:45:06;9.02;;;7.30;;
64871;SDS011;51351;51.450;6.614;2023-07-20T05:47:33;7.97;;;6.85;;
64871;SDS011;51351;51.450;6.614;2023-07-20T05:49:59;9.18;;;7.07;;
64871;SDS011;51351;51.450;6.614;2023-07-20T05:52:25;9.82;;;6.78;;
64871;SDS011;51351;51.450;6.614;2023-07-20T05:54:51;10.88;;;6.60;;
64871;SDS011;51351;51.450;6.614;2023-07-20T05:57:19;7.57;;;6.72;;
64871;SDS011;51351;51.450;6.614;2023-07-20T05:59:46;8.73;;;7.82;;
64871;SDS011;51351;51.450;6.614;2023-07-20T06:02:12;8.27;;;6.82;;
64871;SDS011;51351;51.450;6.614;2023-07-20T06:04:39;8.63;;;6.10;;
64871;SDS011;51351;51.450;6.614;2023-07-20T06:07:05;7.43;;;6.57;;
64871;SDS011;51351;51.450;6.614;2023-07-20T06:09:33;6.65;;;5.72;;
64871;SDS011;51351;51.450;6.614;2023-07-20T06:11:59;5.88;;;4.90;;
64871;SDS011;51351;51.450;6.614;2023-07-20T06:14:25;6.47;;;5.38;;
64871;SDS011;51351;51.450;6.614;2023-07-20T06:16:51;7.93;;;5.93;;
64871;SDS011;51351;51.450;6.614;2023-07-20T06:19:17;7.28;;;6.65;;
64871;SDS011;51351;51.450;6.614;2023-07-20T06:21:43;7.32;;;6.68;;
64871;SDS011;51351;51.450;6.614;2023-07-20T06:24:10;6.18;;;5.57;;
64871;SDS011;51351;51.450;6.614;2023-07-20T06:26:36;7.03;;;6.32;;
64871;SDS011;51351;51.450;6.614;2023-07-20T06:29:05;6.90;;;6.30;;
64871;SDS011;51351;51.450;6.614;2023-07-20T06:31:32;5.45;;;4.88;;
64871;SDS011;51351;51.450;6.614;2023-07-20T06:33:59;6.47;;;5.88;;
64871;SDS011;51351;51.450;6.614;2023-07-20T06:36:25;6.05;;;5.00;;
64871;SDS011;51351;51.450;6.614;2023-07-20T06:38:54;6.45;;;5.80;;
64871;SDS011;51351;51.450;6.614;2023-07-20T06:41:21;5.75;;;5.18;;
64871;SDS011;51351;51.450;6.614;2023-07-20T06:43:48;8.10;;;5.20;;
64871;SDS011;51351;51.450;6.614;2023-07-20T06:46:14;9.20;;;6.75;;
64871;SDS011;51351;51.450;6.614;2023-07-20T06:48:40;15.80;;;8.50;;
64871;SDS011;51351;51.450;6.614;2023-07-20T06:51:06;17.00;;;8.82;;
64871;SDS011;51351;51.450;6.614;2023-07-20T06:53:32;19.15;;;10.82;;
64871;SDS011;51351;51.450;6.614;2023-07-20T06:55:58;16.23;;;8.38;;
64871;SDS011;51351;51.450;6.614;2023-07-20T06:58:24;14.40;;;8.65;;
64871;SDS011;51351;51.450;6.614;2023-07-20T07:03:16;6.07;;;4.85;;
64871;SDS011;51351;51.450;6.614;2023-07-20T07:05:43;5.75;;;4.82;;
64871;SDS011;51351;51.450;6.614;2023-07-20T07:08:12;6.95;;;4.82;;
64871;SDS011;51351;51.450;6.614;2023-07-20T07:10:38;6.85;;;6.03;;
64871;SDS011;51351;51.450;6.614;2023-07-20T07:13:04;5.05;;;4.50;;
64871;SDS011;51351;51.450;6.614;2023-07-20T07:15:30;5.05;;;4.40;;
64871;SDS011;51351;51.450;6.614;2023-07-20T07:17:56;3.53;;;3.22;;
64871;SDS011;51351;51.450;6.614;2023-07-20T07:20:24;2.88;;;2.60;;
64871;SDS011;51351;51.450;6.614;2023-07-20T07:22:51;3.00;;;2.70;;
64871;SDS011;51351;51.450;6.614;2023-07-20T07:25:18;3.67;;;2.50;;
64871;SDS011;51351;51.450;6.614;2023-07-20T07:27:44;4.22;;;3.33;;
64871;SDS011;51351;51.450;6.614;2023-07-20T07:30:11;1.63;;;1.50;;
64871;SDS011;51351;51.450;6.614;2023-07-20T07:32:37;1.70;;;1.60;;
64871;SDS011;51351;51.450;6.614;2023-07-20T07:35:04;2.08;;;1.70;;
64871;SDS011;51351;51.450;6.614;2023-07-20T07:37:30;3.58;;;2.40;;
64871;SDS011;51351;51.450;6.614;2023-07-20T07:39:56;2.58;;;2.30;;
64871;SDS011;51351;51.450;6.614;2023-07-20T07:42:23;3.47;;;3.13;;
64871;SDS011;51351;51.450;6.614;2023-07-20T07:44:49;3.70;;;2.40;;
64871;SDS011;51351;51.450;6.614;2023-07-20T07:47:15;2.00;;;1.65;;
64871;SDS011;51351;51.450;6.614;2023-07-20T07:49:41;1.92;;;1.67;;
64871;SDS011;51351;51.450;6.614;2023-07-20T07:54:34;2.78;;;2.42;;
64871;SDS011;51351;51.450;6.614;2023-07-20T07:57:00;3.05;;;2.13;;
64871;SDS011;51351;51.450;6.614;2023-07-20T07:59:26;5.05;;;2.85;;
64871;SDS011;51351;51.450;6.614;2023-07-20T08:01:52;8.77;;;3.83;;
64871;SDS011;51351;51.450;6.614;2023-07-20T08:04:18;5.03;;;3.42;;
64871;SDS011;51351;51.450;6.614;2023-07-20T08:06:44;5.72;;;3.92;;
64871;SDS011;51351;51.450;6.614;2023-07-20T08:09:10;6.78;;;5.25;;
64871;SDS011;51351;51.450;6.614;2023-07-20T08:11:38;7.70;;;5.70;;
64871;SDS011;51351;51.450;6.614;2023-07-20T08:14:05;3.42;;;2.53;;
64871;SDS011;51351;51.450;6.614;2023-07-20T08:16:33;4.05;;;2.42;;
64871;SDS011;51351;51.450;6.614;2023-07-20T08:18:59;3.30;;;2.63;;
64871;SDS011;51351;51.450;6.614;2023-07-20T08:21:25;3.38;;;3.08;;
64871;SDS011;51351;51.450;6.614;2023-07-20T08:23:51;2.95;;;2.47;;
64871;SDS011;51351;51.450;6.614;2023-07-20T08:26:17;2.80;;;2.53;;
64871;SDS011;51351;51.450;6.614;2023-07-20T08:28:44;3.05;;;1.77;;
64871;SDS011;51351;51.450;6.614;2023-07-20T08:31:11;2.83;;;2.55;;
64871;SDS011;51351;51.450;6.614;2023-07-20T08:33:37;4.88;;;1.85;;
64871;SDS011;51351;51.450;6.614;2023-07-20T08:36:03;2.42;;;1.92;;
64871;SDS011;51351;51.450;6.614;2023-07-20T08:38:29;2.20;;;2.00;;
64871;SDS011;51351;51.450;6.614;2023-07-20T08:40:55;2.28;;;1.60;;
64871;SDS011;51351;51.450;6.614;2023-07-20T08:43:22;1.83;;;1.20;;
64871;SDS011;51351;51.450;6.614;2023-07-20T08:45:52;1.35;;;1.05;;
64871;SDS011;51351;51.450;6.614;2023-07-20T08:48:20;2.13;;;0.98;;
64871;SDS011;51351;51.450;6.614;2023-07-20T08:50:51;1.25;;;0.93;;
64871;SDS011;51351;51.450;6.614;2023-07-20T08:53:19;1.52;;;0.98;;
64871;SDS011;51351;51.450;6.614;2023-07-20T08:55:46;1.17;;;0.90;;
64871;SDS011;51351;51.450;6.614;2023-07-20T08:58:15;1.55;;;1.15;;
64871;SDS011;51351;51.450;6.614;2023-07-20T09:00:42;1.67;;;1.17;;
64871;SDS011;51351;51.450;6.614;2023-07-20T09:03:09;2.03;;;1.02;;
64871;SDS011;51351;51.450;6.614;2023-07-20T09:05:36;1.42;;;1.10;;
64871;SDS011;51351;51.450;6.614;2023-07-20T09:08:02;1.90;;;0.88;;
64871;SDS011;51351;51.450;6.614;2023-07-20T09:10:29;1.95;;;0.82;;
64871;SDS011;51351;51.450;6.614;2023-07-20T09:12:55;1.20;;;1.02;;
64871;SDS011;51351;51.450;6.614;2023-07-20T09:17:51;1.45;;;0.80;;
64871;SDS011;51351;51.450;6.614;2023-07-20T09:20:19;2.55;;;1.25;;
64871;SDS011;51351;51.450;6.614;2023-07-20T09:22:46;2.00;;;1.17;;
64871;SDS011;51351;51.450;6.614;2023-07-20T09:25:16;3.20;;;0.90;;
64871;SDS011;51351;51.450;6.614;2023-07-20T09:27:45;1.63;;;1.08;;
64871;SDS011;51351;51.450;6.614;2023-07-20T09:30:16;1.65;;;1.02;;
64871;SDS011;51351;51.450;6.614;2023-07-20T09:32:51;1.95;;;0.90;;
64871;SDS011;51351;51.450;6.614;2023-07-20T09:35:18;1.92;;;0.95;;
64871;SDS011;51351;51.450;6.614;2023-07-20T09:37:55;1.45;;;1.25;;
64871;SDS011;51351;51.450;6.614;2023-07-20T09:40:25;1.38;;;1.20;;
64871;SDS011;51351;51.450;6.614;2023-07-20T09:42:52;1.55;;;1.33;;
64871;SDS011;51351;51.450;6.614;2023-07-20T09:45:44;1.38;;;0.90;;
64871;SDS011;51351;51.450;6.614;2023-07-20T09:48:11;2.55;;;1.15;;
64871;SDS011;51351;51.450;6.614;2023-07-20T09:50:42;1.20;;;1.00;;
64871;SDS011;51351;51.450;6.614;2023-07-20T09:53:17;1.50;;;1.05;;
64871;SDS011;51351;51.450;6.614;2023-07-20T09:55:44;1.60;;;1.50;;
64871;SDS011;51351;51.450;6.614;2023-07-20T09:58:11;1.30;;;0.98;;
64871;SDS011;51351;51.450;6.614;2023-07-20T10:00:38;1.92;;;0.90;;
64871;SDS011;51351;51.450;6.614;2023-07-20T10:03:05;0.77;;;0.65;;
64871;SDS011;51351;51.450;6.614;2023-07-20T10:05:33;1.13;;;0.93;;
64871;SDS011;51351;51.450;6.614;2023-07-20T10:08:01;1.50;;;1.20;;
64871;SDS011;51351;51.450;6.614;2023-07-20T10:10:30;0.95;;;0.63;;
64871;SDS011;51351;51.450;6.614;2023-07-20T10:12:59;1.60;;;1.25;;
64871;SDS011;51351;51.450;6.614;2023-07-20T10:15:30;1.92;;;1.05;;
64871;SDS011;51351;51.450;6.614;2023-07-20T10:21:19;1.60;;;0.80;;
64871;SDS011;51351;51.450;6.614;2023-07-20T10:23:48;1.08;;;0.70;;
64871;SDS011;51351;51.450;6.614;2023-07-20T10:28:40;1.00;;;0.65;;
64871;SDS011;51351;51.450;6.614;2023-07-20T10:31:11;0.90;;;0.82;;
64871;SDS011;51351;51.450;6.614;2023-07-20T10:33:39;1.80;;;1.05;;
64871;SDS011;51351;51.450;6.614;2023-07-20T10:36:05;1.75;;;1.02;;
64871;SDS011;51351;51.450;6.614;2023-07-20T10:41:04;0.93;;;0.70;;
64871;SDS011;51351;51.450;6.614;2023-07-20T10:43:45;1.30;;;0.63;;
64871;SDS011;51351;51.450;6.614;2023-07-20T10:46:12;1.58;;;0.85;;
64871;SDS011;51351;51.450;6.614;2023-07-20T10:51:39;1.23;;;0.70;;
64871;SDS011;51351;51.450;6.614;2023-07-20T10:54:07;1.25;;;1.00;;
64871;SDS011;51351;51.450;6.614;2023-07-20T10:56:43;1.02;;;0.80;;
64871;SDS011;51351;51.450;6.614;2023-07-20T10:59:20;0.70;;;0.63;;
64871;SDS011;51351;51.450;6.614;2023-07-20T11:02:07;1.85;;;0.75;;
64871;SDS011;51351;51.450;6.614;2023-07-20T11:07:06;1.13;;;0.70;;
64871;SDS011;51351;51.450;6.614;2023-07-20T11:09:36;1.05;;;0.80;;
64871;SDS011;51351;51.450;6.614;2023-07-20T11:14:35;0.98;;;0.63;;
64871;SDS011;51351;51.450;6.614;2023-07-20T11:17:13;1.73;;;0.52;;
64871;SDS011;51351;51.450;6.614;2023-07-20T11:19:40;0.90;;;0.77;;
64871;SDS011;51351;51.450;6.614;2023-07-20T11:22:07;1.73;;;0.70;;
64871;SDS011;51351;51.450;6.614;2023-07-20T11:24:37;0.90;;;0.70;;
64871;SDS011;51351;51.450;6.614;2023-07-20T11:27:05;1.85;;;1.08;;
64871;SDS011;51351;51.450;6.614;2023-07-20T11:29:34;4.95;;;0.57;;
64871;SDS011;51351;51.450;6.614;2023-07-20T11:32:02;1.65;;;1.30;;
64871;SDS011;51351;51.450;6.614;2023-07-20T11:34:30;0.80;;;0.50;;
64871;SDS011;51351;51.450;6.614;2023-07-20T11:36:57;1.08;;;0.80;;
64871;SDS011;51351;51.450;6.614;2023-07-20T11:39:24;0.63;;;0.52;;
64871;SDS011;51351;51.450;6.614;2023-07-20T11:41:57;1.23;;;0.80;;
64871;SDS011;51351;51.450;6.614;2023-07-20T11:44:24;2.85;;;1.20;;
64871;SDS011;51351;51.450;6.614;2023-07-20T11:49:36;0.80;;;0.80;;
64871;SDS011;51351;51.450;6.614;2023-07-20T11:52:04;1.30;;;1.13;;
64871;SDS011;51351;51.450;6.614;2023-07-20T11:54:32;1.08;;;0.57;;
64871;SDS011;51351;51.450;6.614;2023-07-20T11:57:04;1.15;;;0.70;;
64871;SDS011;51351;51.450;6.614;2023-07-20T11:59:33;1.35;;;0.77;;
64871;SDS011;51351;51.450;6.614;2023-07-20T12:02:02;1.48;;;1.10;;
64871;SDS011;51351;51.450;6.614;2023-07-20T12:04:30;3.55;;;0.70;;
64871;SDS011;51351;51.450;6.614;2023-07-20T12:06:57;1.08;;;0.60;;
64871;SDS011;51351;51.450;6.614;2023-07-20T12:09:23;1.02;;;0.75;;
64871;SDS011;51351;51.450;6.614;2023-07-20T12:14:15;2.03;;;0.90;;
64871;SDS011;51351;51.450;6.614;2023-07-20T12:16:42;1.83;;;0.77;;
64871;SDS011;51351;51.450;6.614;2023-07-20T12:19:10;2.45;;;1.00;;
64871;SDS011;51351;51.450;6.614;2023-07-20T12:21:39;1.58;;;0.77;;
64871;SDS011;51351;51.450;6.614;2023-07-20T12:24:08;2.10;;;0.95;;
64871;SDS011;51351;51.450;6.614;2023-07-20T12:26:37;2.00;;;0.85;;
64871;SDS011;51351;51.450;6.614;2023-07-20T12:31:29;0.88;;;0.47;;
64871;SDS011;51351;51.450;6.614;2023-07-20T12:33:56;0.70;;;0.60;;
64871;SDS011;51351;51.450;6.614;2023-07-20T12:36:23;1.42;;;0.70;;
64871;SDS011;51351;51.450;6.614;2023-07-20T12:38:50;0.90;;;0.70;;
64871;SDS011;51351;51.450;6.614;2023-07-20T12:41:16;1.52;;;0.73;;
64871;SDS011;51351;51.450;6.614;2023-07-20T12:43:43;0.77;;;0.52;;
64871;SDS011;51351;51.450;6.614;2023-07-20T12:46:11;1.25;;;0.80;;
64871;SDS011;51351;51.450;6.614;2023-07-20T12:48:39;0.73;;;0.60;;
64871;SDS011;51351;51.450;6.614;2023-07-20T12:51:07;0.98;;;0.82;;
64871;SDS011;51351;51.450;6.614;2023-07-20T12:53:34;0.80;;;0.50;;
64871;SDS011;51351;51.450;6.614;2023-07-20T12:56:01;1.30;;;0.80;;
64871;SDS011;51351;51.450;6.614;2023-07-20T12:58:27;1.52;;;1.08;;
64871;SDS011;51351;51.450;6.614;2023-07-20T13:00:53;1.00;;;0.60;;
64871;SDS011;51351;51.450;6.614;2023-07-20T13:03:20;0.57;;;0.50;;
64871;SDS011;51351;51.450;6.614;2023-07-20T13:05:46;0.93;;;0.70;;
64871;SDS011;51351;51.450;6.614;2023-07-20T13:08:12;1.35;;;0.85;;
64871;SDS011;51351;51.450;6.614;2023-07-20T13:10:39;1.00;;;0.80;;
64871;SDS011;51351;51.450;6.614;2023-07-20T13:13:05;0.80;;;0.55;;
64871;SDS011;51351;51.450;6.614;2023-07-20T13:15:32;1.33;;;0.80;;
64871;SDS011;51351;51.450;6.614;2023-07-20T13:17:59;1.10;;;0.73;;
64871;SDS011;51351;51.450;6.614;2023-07-20T13:20:25;0.90;;;0.65;;
64871;SDS011;51351;51.450;6.614;2023-07-20T13:22:51;0.80;;;0.70;;
64871;SDS011;51351;51.450;6.614;2023-07-20T13:27:44;3.17;;;0.90;;
64871;SDS011;51351;51.450;6.614;2023-07-20T13:30:10;0.70;;;0.57;;
64871;SDS011;51351;51.450;6.614;2023-07-20T13:32:44;1.05;;;0.75;;
64871;SDS011;51351;51.450;6.614;2023-07-20T13:35:11;0.88;;;0.80;;
64871;SDS011;51351;51.450;6.614;2023-07-20T13:37:38;0.88;;;0.57;;
64871;SDS011;51351;51.450;6.614;2023-07-20T13:40:04;1.48;;;0.82;;
64871;SDS011;51351;51.450;6.614;2023-07-20T13:42:31;2.35;;;0.70;;
64871;SDS011;51351;51.450;6.614;2023-07-20T13:44:58;0.70;;;0.60;;
64871;SDS011;51351;51.450;6.614;2023-07-20T13:47:25;2.40;;;0.80;;
64871;SDS011;51351;51.450;6.614;2023-07-20T13:49:52;1.05;;;0.60;;
64871;SDS011;51351;51.450;6.614;2023-07-20T13:52:18;2.47;;;1.10;;
64871;SDS011;51351;51.450;6.614;2023-07-20T13:54:44;1.88;;;0.70;;
64871;SDS011;51351;51.450;6.614;2023-07-20T13:59:36;1.40;;;0.82;;
64871;SDS011;51351;51.450;6.614;2023-07-20T14:04:28;1.13;;;0.90;;
64871;SDS011;51351;51.450;6.614;2023-07-20T14:06:54;2.45;;;0.80;;
64871;SDS011;51351;51.450;6.614;2023-07-20T14:11:46;2.17;;;0.90;;
64871;SDS011;51351;51.450;6.614;2023-07-20T14:14:12;1.42;;;1.08;;
64871;SDS011;51351;51.450;6.614;2023-07-20T14:16:38;1.20;;;0.90;;
64871;SDS011;51351;51.450;6.614;2023-07-20T14:21:30;0.57;;;0.50;;
64871;SDS011;51351;51.450;6.614;2023-07-20T14:23:56;1.20;;;0.98;;
64871;SDS011;51351;51.450;6.614;2023-07-20T14:26:23;0.95;;;0.73;;
64871;SDS011;51351;51.450;6.614;2023-07-20T14:31:15;1.48;;;0.90;;
64871;SDS011;51351;51.450;6.614;2023-07-20T14:36:07;1.60;;;1.10;;
64871;SDS011;51351;51.450;6.614;2023-07-20T14:41:00;3.63;;;1.05;;
64871;SDS011;51351;51.450;6.614;2023-07-20T14:43:26;1.13;;;0.80;;
64871;SDS011;51351;51.450;6.614;2023-07-20T14:48:19;1.50;;;0.80;;
64871;SDS011;51351;51.450;6.614;2023-07-20T14:50:46;1.70;;;0.95;;
64871;SDS011;51351;51.450;6.614;2023-07-20T14:53:13;2.60;;;0.75;;
64871;SDS011;51351;51.450;6.614;2023-07-20T14:55:39;1.20;;;1.05;;
64871;SDS011;51351;51.450;6.614;2023-07-20T14:58:05;1.00;;;0.80;;
64871;SDS011;51351;51.450;6.614;2023-07-20T15:02:57;1.02;;;0.90;;
64871;SDS011;51351;51.450;6.614;2023-07-20T15:07:49;1.05;;;0.95;;
64871;SDS011;51351;51.450;6.614;2023-07-20T16:24:50;2.45;;;0.70;;
64871;SDS011;51351;51.450;6.614;2023-07-20T16:29:44;2.20;;;1.02;;
64871;SDS011;51351;51.450;6.614;2023-07-20T16:32:10;1.38;;;0.52;;
64871;SDS011;51351;51.450;6.614;2023-07-20T16:34:36;0.88;;;0.43;;
64871;SDS011;51351;51.450;6.614;2023-07-20T16:39:28;2.05;;;1.00;;
64871;SDS011;51351;51.450;6.614;2023-07-20T16:41:54;1.10;;;0.60;;
64871;SDS011;51351;51.450;6.614;2023-07-20T16:44:20;0.85;;;0.70;;
64871;SDS011;51351;51.450;6.614;2023-07-20T16:46:49;1.88;;;0.63;;
64871;SDS011;51351;51.450;6.614;2023-07-20T16:49:15;1.58;;;0.70;;
64871;SDS011;51351;51.450;6.614;2023-07-20T16:54:07;1.73;;;0.80;;
64871;SDS011;51351;51.450;6.614;2023-07-20T16:56:33;2.65;;;0.82;;
64871;SDS011;51351;51.450;6.614;2023-07-20T16:58:59;1.38;;;0.90;;
64871;SDS011;51351;51.450;6.614;2023-07-20T17:01:25;1.38;;;0.98;;
64871;SDS011;51351;51.450;6.614;2023-07-20T17:03:51;1.63;;;0.90;;
64871;SDS011;51351;51.450;6.614;2023-07-20T17:06:17;1.67;;;0.77;;
64871;SDS011;51351;51.450;6.614;2023-07-20T17:11:09;1.50;;;0.88;;
64871;SDS011;51351;51.450;6.614;2023-07-20T17:13:35;1.85;;;0.80;;
64871;SDS011;51351;51.450;6.614;2023-07-20T17:16:01;0.73;;;0.73;;
64871;SDS011;51351;51.450;6.614;2023-07-20T17:18:28;1.35;;;0.80;;